Tubul — A8VP8 — position and weather

sailwx.info

Track history (hours):
 
Tides and Currents Weather Stations Pressure Air Temp Water Temp Dewpoint Dewpoint Depression Visibility Wind Speed Wind Dir Waves Ship Positions

Tubul

Last reported at 2016-Aug-09 12:18 UTC. Time now 2016-Aug-24 16:18 UTC.
Position N 01°54' E 102°21'.
Warning: this ship's position is 15 days out of date.

Length 300 m; draft 13.1 m.

Type: Ship (hazmat cat A). MMSI: 636014647.

Date/timePositionNaut miles runAvg speedWind from/ knotsBaromVisibWave heightAir tempDewpointWater temp
2016-Aug-09 12:18N 01°54' E 102°21'1317.2
2016-Aug-09 11:33N 01°48' E 102°33'2017.3
2016-Aug-09 10:25N 01°40' E 102°50'6110.4
2016-Aug-09 04:32N 01°16' E 103°47'0 0.0
2016-Aug-09 03:32N 01°16' E 103°47'0 0.0
2016-Aug-09 02:32N 01°16' E 103°47'0 0.0
2016-Aug-09 01:32N 01°16' E 103°47'0 0.0
2016-Aug-09 00:32N 01°16' E 103°47'0 0.0
2016-Aug-08 23:26N 01°16' E 103°47'0 0.0
2016-Aug-08 22:32N 01°16' E 103°47'0 0.0
2016-Aug-08 21:32N 01°16' E 103°47'0 0.0
2016-Aug-08 20:29N 01°16' E 103°47'0 0.0
2016-Aug-08 19:32N 01°16' E 103°47'0 0.0
2016-Aug-08 18:32N 01°16' E 103°47'0 0.0
2016-Aug-08 17:20N 01°16' E 103°47'0 0.0
2016-Aug-08 16:32N 01°16' E 103°47'0 0.1
2016-Aug-08 15:33N 01°16' E 103°47'4 4.1
2016-Aug-08 14:33N 01°13' E 103°49'9 8.7
2016-Aug-08 13:33N 01°14' E 103°57'1312.7
2016-Aug-08 12:33N 01°17' E 104°10'  
2016-Aug-05 14:22N 22°17' E 114°06'4 4.7
2016-Aug-05 13:33N 22°21' E 114°07'0 0.0
2016-Aug-05 12:32N 22°21' E 114°07'0 0.0
2016-Aug-05 07:20N 22°21' E 114°07'0 0.0
2016-Aug-05 04:25N 22°21' E 114°07'17 2.4
2016-Aug-04 21:26N 22°08' E 114°19'285 6.0
2016-Aug-02 22:15N 24°15' E 118°56'2019.1
2016-Aug-02 21:13N 24°28' E 119°12'1319.2
2016-Aug-02 20:33N 24°36' E 119°23'34317.0
2016-Aug-02 00:23N 29°37' E 122°29'910.7
2016-Aug-01 23:33N 29°43' E 122°21'10 9.7
2016-Aug-01 22:33N 29°50' E 122°13'10 9.9
2016-Aug-01 21:33N 29°54' E 122°03'0 0.2
2016-Aug-01 20:25N 29°54' E 122°02'0 0.0
2016-Aug-01 19:07N 29°54' E 122°02'0 0.0
2016-Aug-01 18:28N 29°54' E 122°02'0 0.0
2016-Aug-01 13:25N 29°54' E 122°02'6 0.7
2016-Aug-01 04:33N 29°56' E 122°09'1211.9
2016-Aug-01 03:33N 29°46' E 122°17'7 6.8
2016-Aug-01 02:33N 29°45' E 122°25'9 8.9
2016-Aug-01 01:33N 29°50' E 122°33'0 0.2
2016-Aug-01 00:27N 29°50' E 122°33'1 1.2
2016-Jul-31 23:27N 29°49' E 122°35'1 1.2
2016-Jul-31 22:30N 29°49' E 122°36'1 0.9
2016-Jul-31 21:17N 29°49' E 122°37'1 1.1
2016-Jul-31 20:27N 29°49' E 122°38'6 6.1
2016-Jul-31 19:32N 29°51' E 122°44'27 8.6
2016-Jul-31 16:22N 30°17' E 122°54'1112.7
2016-Jul-31 15:28N 30°24' E 122°43'5 0.2
2016-Jul-30 17:33N 30°28' E 122°41'  
Track history (hours):
 
Tides and Currents Weather Stations Pressure Air Temp Water Temp Dewpoint Dewpoint Depression Visibility Wind Speed Wind Dir Waves Ship Positions

Tubul

Last reported at 2016-Aug-09 12:18 UTC. Time now 2016-Aug-24 16:18 UTC.
Position N 01°54' E 102°21'.
Warning: this ship's position is 15 days out of date.

Length 300 m; draft 13.1 m.

Type: Ship (hazmat cat A). MMSI: 636014647.

Date/timePositionNaut miles runAvg speedWind from/ knotsBaromVisibWave heightAir tempDewpointWater temp
2016-Aug-09 12:18N 01°54' E 102°21'1317.2
2016-Aug-09 11:33N 01°48' E 102°33'2017.3
2016-Aug-09 10:25N 01°40' E 102°50'6110.4
2016-Aug-09 04:32N 01°16' E 103°47'0 0.0
2016-Aug-09 03:32N 01°16' E 103°47'0 0.0
2016-Aug-09 02:32N 01°16' E 103°47'0 0.0
2016-Aug-09 01:32N 01°16' E 103°47'0 0.0
2016-Aug-09 00:32N 01°16' E 103°47'0 0.0
2016-Aug-08 23:26N 01°16' E 103°47'0 0.0
2016-Aug-08 22:32N 01°16' E 103°47'0 0.0
2016-Aug-08 21:32N 01°16' E 103°47'0 0.0
2016-Aug-08 20:29N 01°16' E 103°47'0 0.0
2016-Aug-08 19:32N 01°16' E 103°47'0 0.0
2016-Aug-08 18:32N 01°16' E 103°47'0 0.0
2016-Aug-08 17:20N 01°16' E 103°47'0 0.0
2016-Aug-08 16:32N 01°16' E 103°47'0 0.1
2016-Aug-08 15:33N 01°16' E 103°47'4 4.1
2016-Aug-08 14:33N 01°13' E 103°49'9 8.7
2016-Aug-08 13:33N 01°14' E 103°57'1312.7
2016-Aug-08 12:33N 01°17' E 104°10'  
2016-Aug-05 14:22N 22°17' E 114°06'4 4.7
2016-Aug-05 13:33N 22°21' E 114°07'0 0.0
2016-Aug-05 12:32N 22°21' E 114°07'0 0.0
2016-Aug-05 07:20N 22°21' E 114°07'0 0.0
2016-Aug-05 04:25N 22°21' E 114°07'17 2.4
2016-Aug-04 21:26N 22°08' E 114°19'285 6.0
2016-Aug-02 22:15N 24°15' E 118°56'2019.1
2016-Aug-02 21:13N 24°28' E 119°12'1319.2
2016-Aug-02 20:33N 24°36' E 119°23'34317.0
2016-Aug-02 00:23N 29°37' E 122°29'910.7
2016-Aug-01 23:33N 29°43' E 122°21'10 9.7
2016-Aug-01 22:33N 29°50' E 122°13'10 9.9
2016-Aug-01 21:33N 29°54' E 122°03'0 0.2
2016-Aug-01 20:25N 29°54' E 122°02'0 0.0
2016-Aug-01 19:07N 29°54' E 122°02'0 0.0
2016-Aug-01 18:28N 29°54' E 122°02'0 0.0
2016-Aug-01 13:25N 29°54' E 122°02'6 0.7
2016-Aug-01 04:33N 29°56' E 122°09'1211.9
2016-Aug-01 03:33N 29°46' E 122°17'7 6.8
2016-Aug-01 02:33N 29°45' E 122°25'9 8.9
2016-Aug-01 01:33N 29°50' E 122°33'0 0.2
2016-Aug-01 00:27N 29°50' E 122°33'1 1.2
2016-Jul-31 23:27N 29°49' E 122°35'1 1.2
2016-Jul-31 22:30N 29°49' E 122°36'1 0.9
2016-Jul-31 21:17N 29°49' E 122°37'1 1.1
2016-Jul-31 20:27N 29°49' E 122°38'6 6.1
2016-Jul-31 19:32N 29°51' E 122°44'27 8.6
2016-Jul-31 16:22N 30°17' E 122°54'1112.7
2016-Jul-31 15:28N 30°24' E 122°43'5 0.2
2016-Jul-30 17:33N 30°28' E 122°41'  

Dump ship's entire track history